Time;durP1;ratioP1;P1;durP2;ratioP2;P2;SDS_P1;SDS_P2;PMS_P1;PMS_P2;Temp;Humidity;BMP_temperature;BMP_pressure;BME280_temperature;BME280_humidity;BME280_pressure;Samples;Min_cycle;Max_cycle;Signal;HPM_P1;HPM_P2
2024/02/10 00:02:10;;;;;;;3.13;2.10;;;12.20;99.90;;;;;;5031844;28;20151;-44
2024/02/10 00:04:36;;;;;;;4.18;1.85;;;12.20;99.90;;;;;;5031483;28;20472;-45
2024/02/10 00:07:02;;;;;;;3.33;2.17;;;12.20;99.90;;;;;;5031672;28;20017;-45
2024/02/10 00:09:27;;;;;;;2.42;1.92;;;12.20;99.90;;;;;;5031446;28;20028;-45
2024/02/10 00:11:53;;;;;;;2.47;1.88;;;12.20;99.90;;;;;;5031584;28;20551;-45
2024/02/10 00:14:20;;;;;;;3.08;2.33;;;12.20;99.90;;;;;;5031686;28;20441;-44
2024/02/10 00:16:46;;;;;;;3.67;1.83;;;12.20;99.90;;;;;;5031997;28;20038;-45
2024/02/10 00:19:11;;;;;;;3.83;1.80;;;12.20;99.90;;;;;;5031523;28;20022;-44
2024/02/10 00:21:38;;;;;;;3.22;2.08;;;12.10;99.90;;;;;;5031264;28;20418;-45
2024/02/10 00:24:04;;;;;;;3.00;1.92;;;12.20;99.90;;;;;;5031065;28;20201;-44
2024/02/10 00:26:31;;;;;;;2.80;1.80;;;12.20;99.90;;;;;;5031160;28;20372;-45
2024/02/10 00:28:57;;;;;;;2.80;2.08;;;12.10;99.90;;;;;;5031652;28;20049;-44
2024/02/10 00:31:23;;;;;;;2.55;1.85;;;12.10;99.90;;;;;;5031191;28;20032;-45
2024/02/10 00:33:52;;;;;;;3.22;2.20;;;12.10;99.90;;;;;;5031821;28;20487;-45
2024/02/10 00:36:19;;;;;;;2.72;2.03;;;12.20;99.90;;;;;;5031332;28;20079;-44
2024/02/10 00:38:45;;;;;;;2.38;1.88;;;12.10;99.90;;;;;;5031186;28;20060;-44
2024/02/10 00:41:11;;;;;;;2.92;1.95;;;12.10;99.90;;;;;;5031638;28;20049;-44
2024/02/10 00:43:42;;;;;;;2.83;2.00;;;12.10;99.90;;;;;;5031493;28;20030;-45
2024/02/10 00:46:15;;;;;;;2.60;2.00;;;12.10;99.90;;;;;;5031197;28;20040;-45
2024/02/10 00:48:41;;;;;;;2.72;2.00;;;12.10;99.90;;;;;;5031410;28;20491;-44
2024/02/10 00:51:08;;;;;;;2.17;1.77;;;12.10;99.90;;;;;;5031948;28;20578;-44
2024/02/10 00:53:39;;;;;;;2.90;1.90;;;12.10;99.90;;;;;;5030965;28;20026;-45
2024/02/10 00:56:07;;;;;;;2.55;1.60;;;12.10;99.90;;;;;;5031503;28;20105;-44
2024/02/10 00:58:33;;;;;;;2.38;1.80;;;12.10;99.90;;;;;;5032154;28;20037;-41
2024/02/10 01:00:58;;;;;;;2.92;2.10;;;12.10;99.90;;;;;;5031477;28;20148;-44
2024/02/10 01:03:24;;;;;;;3.08;1.88;;;12.10;99.90;;;;;;5031434;28;20395;-45
2024/02/10 01:05:50;;;;;;;2.90;2.00;;;12.10;99.90;;;;;;5031571;28;20029;-45
2024/02/10 01:08:17;;;;;;;4.05;1.73;;;12.10;99.90;;;;;;5031726;28;20099;-44
2024/02/10 01:10:44;;;;;;;2.88;1.70;;;12.10;99.90;;;;;;5031010;28;20415;-45
2024/02/10 01:13:10;;;;;;;2.58;1.90;;;12.10;99.90;;;;;;5030928;28;20036;-45
2024/02/10 01:15:35;;;;;;;2.35;1.42;;;12.10;99.90;;;;;;5030720;28;20034;-45
2024/02/10 01:18:03;;;;;;;2.00;1.65;;;12.00;99.90;;;;;;5031108;28;20036;-45
2024/02/10 01:20:29;;;;;;;2.00;1.70;;;12.00;99.90;;;;;;5030977;28;20025;-44
2024/02/10 01:22:57;;;;;;;2.35;1.90;;;12.00;99.90;;;;;;5031480;28;20024;-45
2024/02/10 01:25:29;;;;;;;3.20;2.03;;;12.10;99.90;;;;;;5031237;28;20044;-45
2024/02/10 01:27:55;;;;;;;2.90;1.92;;;12.00;99.90;;;;;;5030660;28;20112;-45
2024/02/10 01:30:20;;;;;;;2.20;1.70;;;12.10;99.90;;;;;;5032295;28;20053;-45
2024/02/10 01:32:46;;;;;;;3.80;1.85;;;12.00;99.90;;;;;;5036034;28;20045;-45
2024/02/10 01:35:12;;;;;;;2.65;1.70;;;12.00;99.90;;;;;;5034136;28;20029;-44
2024/02/10 01:37:40;;;;;;;1.85;1.58;;;12.00;99.90;;;;;;5034060;28;20038;-44
2024/02/10 01:40:11;;;;;;;2.15;1.60;;;12.00;99.90;;;;;;5034671;28;20111;-45
2024/02/10 01:42:37;;;;;;;2.70;1.80;;;12.00;99.90;;;;;;5034557;28;20030;-45
2024/02/10 01:45:08;;;;;;;2.42;1.60;;;12.00;99.90;;;;;;5034747;28;20032;-46
2024/02/10 01:47:37;;;;;;;2.70;1.88;;;12.00;99.90;;;;;;5034029;28;20021;-45
2024/02/10 01:50:05;;;;;;;2.40;1.80;;;12.00;99.90;;;;;;5033966;28;20028;-44
2024/02/10 01:52:30;;;;;;;2.75;1.80;;;12.00;99.90;;;;;;5034306;28;20025;-44
2024/02/10 01:54:56;;;;;;;2.40;1.77;;;12.00;99.90;;;;;;5034041;28;20029;-44
2024/02/10 01:57:22;;;;;;;2.15;1.63;;;12.00;99.90;;;;;;5034361;28;20037;-45
2024/02/10 01:59:47;;;;;;;3.28;2.05;;;12.00;99.90;;;;;;5033995;28;20499;-45
2024/02/10 02:02:15;;;;;;;2.00;1.60;;;12.00;99.90;;;;;;5033600;28;20464;-44
2024/02/10 02:04:43;;;;;;;2.53;1.85;;;12.00;99.90;;;;;;5034041;28;20036;-45
2024/02/10 02:07:09;;;;;;;2.25;1.60;;;12.00;99.90;;;;;;5034871;28;20033;-44
2024/02/10 02:09:35;;;;;;;2.03;1.40;;;12.00;99.90;;;;;;5034901;28;20025;-44
2024/02/10 02:12:06;;;;;;;2.20;1.80;;;11.90;99.90;;;;;;5034016;28;20036;-45
2024/02/10 02:14:36;;;;;;;3.10;1.73;;;12.00;99.90;;;;;;5033959;28;20025;-45
2024/02/10 02:17:04;;;;;;;3.55;2.05;;;12.00;99.90;;;;;;5034387;28;20485;-45
2024/02/10 02:19:32;;;;;;;1.90;1.58;;;12.00;99.90;;;;;;5033320;28;20037;-44
2024/02/10 02:22:00;;;;;;;2.15;1.65;;;12.00;99.90;;;;;;5033422;28;20092;-44
2024/02/10 02:24:30;;;;;;;3.00;1.73;;;12.00;99.90;;;;;;5033431;28;20022;-44
2024/02/10 02:26:59;;;;;;;2.63;1.70;;;12.00;99.90;;;;;;5033747;28;20101;-45
2024/02/10 02:29:25;;;;;;;2.97;1.80;;;12.00;99.90;;;;;;5031836;28;20021;-45
2024/02/10 02:31:59;;;;;;;1.92;1.73;;;12.00;99.90;;;;;;5034696;28;20506;-44
2024/02/10 02:34:33;;;;;;;2.90;1.88;;;12.00;99.90;;;;;;5034788;28;20033;-43
2024/02/10 02:36:59;;;;;;;1.92;1.52;;;12.00;99.90;;;;;;5033850;28;20164;-45
2024/02/10 02:39:25;;;;;;;2.78;1.80;;;12.00;99.90;;;;;;5033506;28;20021;-44
2024/02/10 02:41:51;;;;;;;2.33;1.70;;;12.00;99.90;;;;;;5032173;28;20120;-43
2024/02/10 02:44:17;;;;;;;2.40;1.90;;;12.00;99.90;;;;;;5032960;28;20096;-45
2024/02/10 02:46:43;;;;;;;2.53;1.80;;;11.90;99.90;;;;;;5033423;28;20025;-44
2024/02/10 02:49:12;;;;;;;2.20;1.60;;;11.90;99.90;;;;;;5033028;28;20026;-44
2024/02/10 02:51:37;;;;;;;2.47;1.70;;;11.90;99.90;;;;;;5033793;28;20040;-44
2024/02/10 02:54:04;;;;;;;2.60;1.65;;;11.90;99.90;;;;;;5034002;28;20423;-45
2024/02/10 02:56:30;;;;;;;2.90;1.80;;;11.90;99.90;;;;;;5032974;28;20045;-44
2024/02/10 02:58:56;;;;;;;1.80;1.55;;;11.90;99.90;;;;;;5032507;28;20067;-43
2024/02/10 03:01:23;;;;;;;2.42;1.58;;;11.90;99.90;;;;;;5033470;28;20407;-45
2024/02/10 03:03:52;;;;;;;2.97;1.90;;;11.90;99.90;;;;;;5033926;28;20096;-44
2024/02/10 03:06:20;;;;;;;2.55;1.80;;;11.90;99.90;;;;;;5033151;28;20376;-44
2024/02/10 03:08:47;;;;;;;2.70;1.83;;;11.90;99.90;;;;;;5033087;28;20068;-44
2024/02/10 03:11:19;;;;;;;1.60;1.50;;;11.90;99.90;;;;;;5032611;28;20025;-44
2024/02/10 03:13:46;;;;;;;2.38;1.60;;;11.90;99.90;;;;;;5032734;28;20403;-44
2024/02/10 03:16:12;;;;;;;2.22;1.52;;;11.90;99.90;;;;;;5032475;28;20053;-45
2024/02/10 03:18:38;;;;;;;2.28;1.60;;;11.90;99.90;;;;;;5032363;28;20061;-44
2024/02/10 03:21:04;;;;;;;2.78;1.90;;;11.90;99.90;;;;;;5032281;28;20481;-45
2024/02/10 03:23:31;;;;;;;2.15;1.63;;;11.90;99.90;;;;;;5032217;28;20025;-43
2024/02/10 03:26:01;;;;;;;2.30;1.65;;;11.90;99.90;;;;;;5032407;28;20040;-45
2024/02/10 03:28:27;;;;;;;2.15;1.50;;;11.90;99.90;;;;;;5032576;28;20033;-44
2024/02/10 03:30:53;;;;;;;2.22;1.55;;;11.90;99.90;;;;;;5032048;28;20399;-44
2024/02/10 03:33:18;;;;;;;2.10;1.67;;;11.90;99.90;;;;;;5031924;28;20502;-44
2024/02/10 03:35:44;;;;;;;2.25;1.70;;;11.90;99.90;;;;;;5032124;28;20068;-44
2024/02/10 03:38:09;;;;;;;3.92;1.75;;;11.90;99.90;;;;;;5032814;28;20033;-44
2024/02/10 03:40:35;;;;;;;2.47;1.60;;;11.90;99.90;;;;;;5031855;28;20030;-44
2024/02/10 03:43:01;;;;;;;2.35;1.63;;;11.80;99.90;;;;;;5031871;28;20021;-44
2024/02/10 03:45:36;;;;;;;2.70;1.80;;;11.90;99.90;;;;;;5031623;28;20021;-43
2024/02/10 03:48:04;;;;;;;2.25;1.60;;;11.80;99.90;;;;;;5032731;28;20037;-42
2024/02/10 03:50:30;;;;;;;2.45;1.85;;;11.80;99.90;;;;;;5032224;28;20032;-44
2024/02/10 03:52:57;;;;;;;1.90;1.52;;;11.80;99.90;;;;;;5031358;28;20397;-45
2024/02/10 03:55:23;;;;;;;2.60;1.60;;;11.90;99.90;;;;;;5031501;28;20040;-44
2024/02/10 03:57:53;;;;;;;2.05;1.65;;;11.90;99.90;;;;;;5031553;28;20025;-44
2024/02/10 04:00:20;;;;;;;2.53;1.70;;;11.80;99.90;;;;;;5031625;28;20037;-44
2024/02/10 04:02:46;;;;;;;2.75;1.60;;;11.80;99.90;;;;;;5031829;28;20483;-45
2024/02/10 04:05:13;;;;;;;1.92;1.40;;;11.80;99.90;;;;;;5032018;28;20030;-44
2024/02/10 04:07:39;;;;;;;4.57;1.90;;;11.90;99.90;;;;;;5032340;28;20024;-44
2024/02/10 04:10:12;;;;;;;1.90;1.50;;;11.80;99.90;;;;;;5032239;28;20105;-44
2024/02/10 04:12:38;;;;;;;1.98;1.38;;;11.80;99.90;;;;;;5031440;28;20064;-44
2024/02/10 04:15:08;;;;;;;2.10;1.55;;;11.90;99.90;;;;;;5031585;28;20403;-43
2024/02/10 04:17:33;;;;;;;2.25;1.50;;;11.80;99.90;;;;;;5031382;28;20183;-44
2024/02/10 04:20:00;;;;;;;2.17;1.50;;;11.80;99.90;;;;;;5031502;28;20084;-44
2024/02/10 04:22:28;;;;;;;2.10;1.67;;;11.80;99.90;;;;;;5032365;28;20020;-44
2024/02/10 04:24:57;;;;;;;1.60;1.40;;;11.90;99.90;;;;;;5031163;28;20026;-45
2024/02/10 04:27:23;;;;;;;1.88;1.42;;;11.90;99.90;;;;;;5031197;28;20032;-45
2024/02/10 04:29:49;;;;;;;1.98;1.55;;;11.80;99.90;;;;;;5032227;28;20084;-44
2024/02/10 04:32:14;;;;;;;1.80;1.38;;;11.80;99.90;;;;;;5032200;28;20488;-44
2024/02/10 04:34:43;;;;;;;1.90;1.58;;;11.80;99.90;;;;;;5030322;28;20047;-44
2024/02/10 04:37:10;;;;;;;2.10;1.40;;;11.80;99.90;;;;;;5031730;28;20109;-44
2024/02/10 04:39:37;;;;;;;2.72;1.60;;;11.80;99.90;;;;;;5031501;28;20026;-44
2024/02/10 04:42:05;;;;;;;1.60;1.30;;;11.80;99.90;;;;;;5032371;28;20075;-43
2024/02/10 04:44:31;;;;;;;2.88;1.90;;;11.80;99.90;;;;;;5031650;28;20063;-44
2024/02/10 04:46:57;;;;;;;2.50;1.63;;;11.80;99.90;;;;;;5031515;28;20357;-43
2024/02/10 04:49:26;;;;;;;2.45;1.90;;;11.80;99.90;;;;;;5031533;28;20029;-43
2024/02/10 04:51:52;;;;;;;1.65;1.42;;;11.80;99.90;;;;;;5030961;28;20463;-44
2024/02/10 04:54:18;;;;;;;2.00;1.58;;;11.80;99.90;;;;;;5031235;28;20040;-45
2024/02/10 04:56:43;;;;;;;1.60;1.45;;;11.80;99.90;;;;;;5031478;28;20200;-43
2024/02/10 04:59:17;;;;;;;1.80;1.58;;;11.80;99.90;;;;;;5031351;28;20083;-44
2024/02/10 05:01:43;;;;;;;1.45;1.30;;;11.80;99.90;;;;;;5031111;28;20032;-44
2024/02/10 05:04:14;;;;;;;1.60;1.48;;;11.80;99.90;;;;;;5031637;28;20029;-43
2024/02/10 05:06:40;;;;;;;1.75;1.55;;;11.80;99.90;;;;;;5034529;28;20467;-43
2024/02/10 05:09:05;;;;;;;2.72;1.58;;;11.80;99.90;;;;;;5034612;28;20038;-44
2024/02/10 05:11:31;;;;;;;3.13;1.45;;;11.80;99.90;;;;;;5036414;28;20029;-44
2024/02/10 05:13:57;;;;;;;2.47;1.90;;;11.80;99.90;;;;;;5035780;28;20029;-43
2024/02/10 05:16:23;;;;;;;1.77;1.50;;;11.80;99.90;;;;;;5034433;28;20113;-43
2024/02/10 05:18:51;;;;;;;2.85;1.92;;;11.80;99.90;;;;;;5035015;28;20044;-44
2024/02/10 05:21:22;;;;;;;2.15;1.63;;;11.80;99.90;;;;;;5034289;28;20029;-44
2024/02/10 05:23:49;;;;;;;2.10;1.48;;;11.80;99.90;;;;;;5035429;28;20030;-44
2024/02/10 05:26:17;;;;;;;2.10;1.58;;;11.80;99.90;;;;;;5035283;28;20033;-44
2024/02/10 05:28:44;;;;;;;2.88;1.95;;;11.80;99.90;;;;;;5034718;28;20032;-44
2024/02/10 05:31:11;;;;;;;2.70;1.77;;;11.80;99.90;;;;;;5035091;28;20108;-45
2024/02/10 05:33:39;;;;;;;2.40;1.67;;;11.70;99.90;;;;;;5034966;28;20067;-45
2024/02/10 05:36:08;;;;;;;2.67;1.63;;;11.70;99.90;;;;;;5034561;28;20092;-45
2024/02/10 05:38:34;;;;;;;2.08;1.65;;;11.80;99.90;;;;;;5034126;28;20072;-44
2024/02/10 05:41:04;;;;;;;1.90;1.60;;;11.70;99.90;;;;;;5034102;28;20395;-43
2024/02/10 05:43:32;;;;;;;2.15;1.70;;;11.80;99.90;;;;;;5035088;28;20518;-44
2024/02/10 05:46:06;;;;;;;1.77;1.60;;;11.70;99.90;;;;;;5034782;28;20029;-44
2024/02/10 05:48:32;;;;;;;2.10;1.90;;;11.80;99.90;;;;;;5034278;28;20018;-44
2024/02/10 05:51:01;;;;;;;2.63;1.80;;;11.80;99.90;;;;;;5034767;28;20136;-45
2024/02/10 05:53:27;;;;;;;2.22;1.70;;;11.80;99.90;;;;;;5035007;28;20418;-44
2024/02/10 05:55:53;;;;;;;2.20;1.95;;;11.80;99.90;;;;;;5033767;28;20030;-45
2024/02/10 05:58:23;;;;;;;1.70;1.52;;;11.70;99.90;;;;;;5033691;28;20056;-45
2024/02/10 06:00:51;;;;;;;3.53;1.45;;;11.80;99.90;;;;;;5034179;28;20036;-44
2024/02/10 06:03:17;;;;;;;2.45;1.85;;;11.80;99.90;;;;;;5034124;28;20021;-45
2024/02/10 06:05:43;;;;;;;2.67;1.70;;;11.80;99.90;;;;;;5034038;28;20079;-43
2024/02/10 06:08:12;;;;;;;2.60;1.80;;;11.80;99.90;;;;;;5034269;28;20029;-45
2024/02/10 06:10:39;;;;;;;2.20;1.65;;;11.70;99.90;;;;;;5034834;28;20029;-44
2024/02/10 06:13:05;;;;;;;1.98;1.60;;;11.70;99.90;;;;;;5034711;28;20030;-44
2024/02/10 06:15:30;;;;;;;2.30;1.73;;;11.80;99.90;;;;;;5034364;28;20036;-45
2024/02/10 06:17:58;;;;;;;2.60;1.77;;;11.70;99.90;;;;;;5033744;28;20032;-45
2024/02/10 06:20:24;;;;;;;1.80;1.45;;;11.70;99.90;;;;;;5034686;28;20502;-44
2024/02/10 06:22:52;;;;;;;1.98;1.65;;;11.70;99.90;;;;;;5033783;28;20100;-44
2024/02/10 06:25:25;;;;;;;3.10;1.88;;;11.70;99.90;;;;;;5034781;28;20029;-44
2024/02/10 06:27:59;;;;;;;2.00;1.70;;;11.70;99.90;;;;;;5035065;28;20021;-45
2024/02/10 06:30:29;;;;;;;2.35;1.73;;;11.80;99.90;;;;;;5034477;28;20030;-44
2024/02/10 06:32:55;;;;;;;1.90;1.58;;;11.70;99.90;;;;;;5034225;28;20458;-45
2024/02/10 06:35:21;;;;;;;2.28;1.75;;;11.70;99.90;;;;;;5033978;28;20048;-45
2024/02/10 06:37:50;;;;;;;2.75;1.90;;;11.70;99.90;;;;;;5033236;28;20064;-44
2024/02/10 06:40:17;;;;;;;2.63;2.00;;;11.70;99.90;;;;;;5033887;28;20100;-44
2024/02/10 06:42:46;;;;;;;2.55;2.00;;;11.70;99.90;;;;;;5033376;28;20022;-42
2024/02/10 06:45:15;;;;;;;3.40;1.88;;;11.70;99.90;;;;;;5034041;28;20032;-44
2024/02/10 06:47:44;;;;;;;3.00;1.90;;;11.70;99.90;;;;;;5033836;28;20051;-44
2024/02/10 06:50:14;;;;;;;3.05;1.90;;;11.70;99.90;;;;;;5033995;28;20060;-44
2024/02/10 06:52:41;;;;;;;2.25;1.83;;;11.70;99.90;;;;;;5033667;28;20453;-43
2024/02/10 06:55:07;;;;;;;2.45;2.00;;;11.70;99.90;;;;;;5033505;28;20021;-44
2024/02/10 06:57:33;;;;;;;3.00;2.00;;;11.70;99.90;;;;;;5033748;28;20065;-43
2024/02/10 07:00:13;;;;;;;2.55;1.92;;;11.70;99.90;;;;;;5034472;28;20030;-44
2024/02/10 07:02:43;;;;;;;3.55;1.90;;;11.70;99.90;;;;;;5033968;28;20021;-44
2024/02/10 07:05:12;;;;;;;2.70;2.20;;;11.70;99.90;;;;;;5032503;28;20032;-44
2024/02/10 07:07:46;;;;;;;2.60;2.00;;;11.70;99.90;;;;;;5032851;28;20022;-44
2024/02/10 07:10:16;;;;;;;3.00;2.05;;;11.70;99.90;;;;;;5032445;28;20021;-43
2024/02/10 07:12:42;;;;;;;2.38;2.08;;;11.80;99.90;;;;;;5033029;28;20037;-45
2024/02/10 07:15:31;;;;;;;3.08;2.00;;;11.80;99.90;;;;;;5032733;28;20033;-44
2024/02/10 07:17:56;;;;;;;3.55;2.50;;;11.80;99.90;;;;;;5032520;28;20487;-42
2024/02/10 07:20:23;;;;;;;2.83;2.50;;;11.80;99.90;;;;;;5032728;28;20025;-44
2024/02/10 07:22:59;;;;;;;3.35;2.47;;;11.90;99.90;;;;;;5032389;28;20109;-44
2024/02/10 07:25:27;;;;;;;2.67;1.98;;;11.90;99.90;;;;;;5032012;28;20525;-44
2024/02/10 07:27:53;;;;;;;3.03;2.13;;;12.00;99.90;;;;;;5031733;28;20057;-44
2024/02/10 07:30:20;;;;;;;2.60;2.20;;;12.00;99.90;;;;;;5032061;28;20496;-45
2024/02/10 07:32:47;;;;;;;3.53;2.30;;;12.10;99.90;;;;;;5031972;28;20443;-45
2024/02/10 07:35:13;;;;;;;4.07;2.63;;;12.10;99.90;;;;;;5031956;28;20021;-45
2024/02/10 07:37:39;;;;;;;1.95;1.75;;;12.10;99.90;;;;;;5032292;28;20036;-45
2024/02/10 07:40:07;;;;;;;2.63;2.33;;;12.20;99.90;;;;;;5032064;28;20033;-42
2024/02/10 07:42:36;;;;;;;3.15;2.40;;;12.30;99.90;;;;;;5032277;28;20025;-45
2024/02/10 07:45:02;;;;;;;2.40;2.10;;;12.30;99.90;;;;;;5032225;28;20034;-45
2024/02/10 07:47:27;;;;;;;2.80;2.30;;;12.40;99.90;;;;;;5031787;28;20075;-45
2024/02/10 07:49:53;;;;;;;3.15;2.38;;;12.40;99.90;;;;;;5032043;28;20064;-44
2024/02/10 07:52:22;;;;;;;3.83;2.72;;;12.50;99.90;;;;;;5031829;28;20376;-44
2024/02/10 07:54:51;;;;;;;3.05;2.20;;;12.50;99.90;;;;;;5031809;28;20387;-45
2024/02/10 07:57:20;;;;;;;2.60;1.98;;;12.60;99.90;;;;;;5031986;28;20025;-45
2024/02/10 07:59:50;;;;;;;2.88;2.33;;;12.60;99.90;;;;;;5031385;28;20032;-45
2024/02/10 08:02:26;;;;;;;3.20;2.60;;;12.70;99.90;;;;;;5031652;28;20033;-44
2024/02/10 08:04:56;;;;;;;3.80;2.35;;;12.80;99.90;;;;;;5031531;28;20017;-44
2024/02/10 08:07:23;;;;;;;3.75;2.47;;;12.80;99.90;;;;;;5031483;28;20538;-45
2024/02/10 08:09:49;;;;;;;3.08;2.58;;;12.90;99.90;;;;;;5031812;28;20098;-45
2024/02/10 08:12:23;;;;;;;2.35;1.90;;;12.90;99.90;;;;;;5031596;28;20052;-45
2024/02/10 08:14:55;;;;;;;2.40;2.10;;;13.00;99.90;;;;;;5031372;28;20029;-45
2024/02/10 08:17:26;;;;;;;2.45;2.20;;;13.10;99.90;;;;;;5031511;28;20021;-44
2024/02/10 08:19:53;;;;;;;3.30;2.70;;;13.10;99.90;;;;;;5031913;28;20100;-45
2024/02/10 08:22:19;;;;;;;6.47;4.97;;;13.20;99.90;;;;;;5031212;28;20021;-44
2024/02/10 08:24:47;;;;;;;7.82;6.07;;;13.30;99.90;;;;;;5031030;28;20041;-44
2024/02/10 08:27:15;;;;;;;6.25;5.30;;;13.40;99.90;;;;;;5032980;28;20029;-44
2024/02/10 08:29:42;;;;;;;7.25;5.70;;;13.40;99.90;;;;;;5031442;28;20144;-42
2024/02/10 08:32:12;;;;;;;5.85;5.15;;;13.40;99.90;;;;;;5031952;28;20072;-45
2024/02/10 08:34:42;;;;;;;7.07;5.60;;;13.50;99.90;;;;;;5032031;28;20129;-43
2024/02/10 08:37:09;;;;;;;6.63;5.18;;;13.50;99.90;;;;;;5031023;28;20029;-44
2024/02/10 08:39:36;;;;;;;5.80;4.85;;;13.60;99.90;;;;;;5032536;28;20151;-45
2024/02/10 08:42:05;;;;;;;6.30;5.10;;;13.60;99.90;;;;;;5036901;28;20117;-45
2024/02/10 08:44:32;;;;;;;6.13;4.90;;;13.70;99.90;;;;;;5036622;28;20132;-45
2024/02/10 08:46:59;;;;;;;6.50;4.70;;;13.80;99.90;;;;;;5035761;28;20039;-44
2024/02/10 08:49:24;;;;;;;6.15;5.10;;;13.80;99.90;;;;;;5035038;28;20022;-45
2024/02/10 08:51:53;;;;;;;6.30;4.90;;;13.90;99.90;;;;;;5035332;28;20041;-45
2024/02/10 08:54:19;;;;;;;6.97;5.57;;;13.90;99.90;;;;;;5034997;28;20513;-44
2024/02/10 08:56:45;;;;;;;7.10;5.72;;;14.00;99.90;;;;;;5034836;28;20108;-44
2024/02/10 08:59:12;;;;;;;7.82;5.80;;;14.10;99.90;;;;;;5034808;28;20021;-45
2024/02/10 09:01:42;;;;;;;7.07;5.50;;;14.10;99.90;;;;;;5034795;28;20443;-42
2024/02/10 09:04:11;;;;;;;6.45;5.80;;;14.20;99.90;;;;;;5035370;28;20438;-43
2024/02/10 09:06:37;;;;;;;8.77;5.82;;;14.10;99.90;;;;;;5034796;28;20017;-45
2024/02/10 09:09:10;;;;;;;7.18;5.55;;;14.20;99.90;;;;;;5034573;28;20021;-43
2024/02/10 09:11:41;;;;;;;6.53;5.45;;;14.30;99.90;;;;;;5034953;28;20028;-45
2024/02/10 09:14:07;;;;;;;7.57;6.10;;;14.30;99.90;;;;;;5035364;28;20092;-44
2024/02/10 09:16:33;;;;;;;6.70;5.45;;;14.40;99.90;;;;;;5036281;28;20099;-45
2024/02/10 09:19:01;;;;;;;6.55;5.78;;;14.40;99.90;;;;;;5035025;28;20434;-45
2024/02/10 09:21:28;;;;;;;6.40;5.25;;;14.50;99.90;;;;;;5035414;28;20029;-45
2024/02/10 09:23:53;;;;;;;6.88;5.53;;;14.50;99.90;;;;;;5036026;28;20021;-45
2024/02/10 09:26:20;;;;;;;5.30;4.80;;;14.50;99.90;;;;;;5034079;28;20055;-44
2024/02/10 09:28:45;;;;;;;7.10;4.90;;;14.60;99.90;;;;;;5034333;28;20475;-45
2024/02/10 09:31:15;;;;;;;6.22;5.50;;;14.60;99.90;;;;;;5035808;28;20061;-44
2024/02/10 09:33:42;;;;;;;6.13;5.30;;;14.70;99.90;;;;;;5035133;28;20033;-45
2024/02/10 09:36:14;;;;;;;5.47;4.57;;;14.70;99.90;;;;;;5034166;28;20022;-44
2024/02/10 09:38:43;;;;;;;5.45;4.63;;;14.80;99.90;;;;;;5034400;28;20059;-44
2024/02/10 09:41:12;;;;;;;4.90;4.25;;;14.80;99.90;;;;;;5033967;28;20033;-45
2024/02/10 09:43:48;;;;;;;5.05;4.28;;;14.90;99.90;;;;;;5036469;28;20077;-45
2024/02/10 09:46:14;;;;;;;6.07;4.75;;;14.90;99.80;;;;;;5035475;28;20577;-45
2024/02/10 09:48:40;;;;;;;4.78;3.97;;;14.90;99.70;;;;;;5035359;28;20121;-43
2024/02/10 09:51:06;;;;;;;5.90;4.47;;;15.00;99.60;;;;;;5034353;28;20360;-44
2024/02/10 09:53:33;;;;;;;5.03;4.20;;;15.00;99.50;;;;;;5034095;28;20033;-44
2024/02/10 09:55:59;;;;;;;4.78;4.28;;;15.10;99.40;;;;;;5033846;28;20033;-43
2024/02/10 09:58:25;;;;;;;5.07;4.20;;;15.10;99.40;;;;;;5033609;28;20040;-45
2024/02/10 10:00:52;;;;;;;4.10;3.55;;;15.10;99.30;;;;;;5033597;28;20456;-45
2024/02/10 10:03:18;;;;;;;5.45;4.30;;;15.20;99.20;;;;;;5033714;28;20026;-45
2024/02/10 10:05:45;;;;;;;4.55;3.88;;;15.20;99.10;;;;;;5033583;28;20024;-45
2024/02/10 10:08:11;;;;;;;4.60;4.03;;;15.20;99.10;;;;;;5033551;28;20018;-44
2024/02/10 10:10:37;;;;;;;4.95;4.07;;;15.30;99.00;;;;;;5033470;28;20026;-45
2024/02/10 10:13:06;;;;;;;4.68;3.60;;;15.30;98.90;;;;;;5033419;28;20026;-45
2024/02/10 10:15:34;;;;;;;4.70;3.55;;;15.30;98.90;;;;;;5033898;28;20482;-44
2024/02/10 10:18:00;;;;;;;4.10;3.70;;;15.40;98.80;;;;;;5033409;28;20053;-44
2024/02/10 10:20:26;;;;;;;3.83;3.17;;;15.40;98.70;;;;;;5033273;28;20053;-45
2024/02/10 10:22:51;;;;;;;11.35;9.60;;;15.40;98.70;;;;;;5033828;28;20096;-45
2024/02/10 10:25:17;;;;;;;14.52;10.55;;;15.40;98.70;;;;;;5033104;28;20037;-44
2024/02/10 10:27:47;;;;;;;13.88;10.45;;;15.50;98.80;;;;;;5034357;28;20029;-44
2024/02/10 10:30:15;;;;;;;15.10;11.27;;;15.50;98.80;;;;;;5033639;28;20043;-45
2024/02/10 10:32:50;;;;;;;12.90;10.25;;;15.50;98.80;;;;;;5033364;28;20021;-45
2024/02/10 10:35:19;;;;;;;12.52;9.57;;;15.60;98.70;;;;;;5033132;28;20022;-45
2024/02/10 10:37:48;;;;;;;13.02;9.65;;;15.60;98.70;;;;;;5033220;28;20052;-44
2024/02/10 10:40:14;;;;;;;12.10;8.70;;;15.60;98.60;;;;;;5033666;28;20113;-45
2024/02/10 10:42:41;;;;;;;11.05;8.93;;;15.60;98.50;;;;;;5034220;28;20465;-45
2024/02/10 10:45:11;;;;;;;12.32;9.25;;;15.60;98.50;;;;;;5033498;28;20021;-45
2024/02/10 10:47:40;;;;;;;11.88;8.73;;;15.60;98.50;;;;;;5034225;28;20507;-44
2024/02/10 10:50:07;;;;;;;11.98;9.40;;;15.70;98.40;;;;;;5033151;28;20060;-45
2024/02/10 10:52:38;;;;;;;11.68;8.68;;;15.70;98.40;;;;;;5032616;28;20365;-45
2024/02/10 10:55:05;;;;;;;12.20;8.50;;;15.70;98.30;;;;;;5033202;28;20021;-44
2024/02/10 10:57:32;;;;;;;11.27;8.60;;;15.70;98.30;;;;;;5032738;28;20029;-45
2024/02/10 11:00:04;;;;;;;11.38;8.65;;;15.70;98.20;;;;;;5033379;28;20025;-45
2024/02/10 11:02:32;;;;;;;10.55;8.35;;;15.70;98.20;;;;;;5034659;28;20021;-45
2024/02/10 11:05:03;;;;;;;11.32;8.75;;;15.80;98.10;;;;;;5032825;28;20057;-45
2024/02/10 11:07:36;;;;;;;11.38;8.32;;;15.80;98.10;;;;;;5033167;28;20430;-44
2024/02/10 11:10:04;;;;;;;10.47;8.07;;;15.80;98.00;;;;;;5032770;28;20017;-43
2024/02/10 11:12:31;;;;;;;10.70;8.05;;;15.80;97.90;;;;;;5032819;28;20045;-45
2024/02/10 11:14:58;;;;;;;10.60;8.13;;;15.90;97.90;;;;;;5032854;28;20503;-43
2024/02/10 11:17:29;;;;;;;9.73;7.43;;;15.90;97.90;;;;;;5033150;28;20025;-42
2024/02/10 11:20:04;;;;;;;8.73;7.07;;;15.90;97.80;;;;;;5033479;28;20029;-44
2024/02/10 11:22:42;;;;;;;9.93;7.47;;;15.90;97.80;;;;;;5032829;28;20037;-45
2024/02/10 11:25:11;;;;;;;9.88;7.05;;;16.00;97.70;;;;;;5032238;28;20036;-45
2024/02/10 11:27:38;;;;;;;10.35;7.85;;;16.00;97.70;;;;;;5032306;28;20034;-45
2024/02/10 11:30:04;;;;;;;9.32;7.18;;;16.00;97.70;;;;;;5032353;28;20021;-45
2024/02/10 11:32:31;;;;;;;9.38;6.82;;;16.00;97.60;;;;;;5032592;28;20033;-45
2024/02/10 11:34:57;;;;;;;9.57;7.10;;;16.00;97.60;;;;;;5031887;28;20022;-45
2024/02/10 11:37:25;;;;;;;8.70;7.25;;;16.00;97.50;;;;;;5031868;28;20025;-45
2024/02/10 11:39:55;;;;;;;8.85;6.90;;;16.00;97.50;;;;;;5031846;28;20025;-45
2024/02/10 11:42:23;;;;;;;9.18;7.22;;;16.10;97.50;;;;;;5033021;28;20025;-45
2024/02/10 11:44:50;;;;;;;9.02;6.90;;;16.10;97.40;;;;;;5032003;28;20025;-45
2024/02/10 11:47:16;;;;;;;8.00;6.80;;;16.10;97.40;;;;;;5032222;28;20033;-45
2024/02/10 11:49:45;;;;;;;9.07;6.97;;;16.10;97.40;;;;;;5031742;28;20479;-45
2024/02/10 11:52:11;;;;;;;8.23;6.60;;;16.10;97.30;;;;;;5032434;28;20056;-44
2024/02/10 11:54:37;;;;;;;7.72;6.05;;;16.10;97.30;;;;;;5031228;28;20029;-45
2024/02/10 11:57:04;;;;;;;9.00;6.68;;;16.10;97.30;;;;;;5031541;28;20017;-44
2024/02/10 11:59:37;;;;;;;8.63;6.85;;;16.20;97.30;;;;;;5032695;28;20087;-45
2024/02/10 12:02:03;;;;;;;8.60;6.40;;;16.20;97.30;;;;;;5032172;28;20125;-44
2024/02/10 12:04:32;;;;;;;9.68;6.53;;;16.20;97.20;;;;;;5032014;28;20491;-45
2024/02/10 12:06:58;;;;;;;8.95;6.57;;;16.20;97.20;;;;;;5031423;28;20025;-44
2024/02/10 12:09:25;;;;;;;8.60;6.20;;;16.20;97.20;;;;;;5031590;28;20018;-43
2024/02/10 12:12:00;;;;;;;7.75;6.00;;;16.20;97.10;;;;;;5031287;28;20021;-45
2024/02/10 12:14:28;;;;;;;7.97;6.25;;;16.30;97.10;;;;;;5032148;28;20033;-45
2024/02/10 12:17:06;;;;;;;7.88;6.00;;;16.30;97.10;;;;;;5031644;28;20032;-42
2024/02/10 12:19:40;;;;;;;8.10;6.00;;;16.30;97.10;;;;;;5031419;28;20494;-43
2024/02/10 12:22:09;;;;;;;8.50;6.00;;;16.30;97.10;;;;;;5031870;28;20079;-44
2024/02/10 12:24:36;;;;;;;8.45;5.82;;;16.30;97.00;;;;;;5032326;28;20091;-45
2024/02/10 12:27:01;;;;;;;7.93;5.95;;;16.30;97.00;;;;;;5031430;28;20033;-45
2024/02/10 12:29:30;;;;;;;6.80;5.50;;;16.40;97.00;;;;;;5030899;28;20025;-44
2024/02/10 12:31:56;;;;;;;6.70;5.32;;;16.30;96.90;;;;;;5031648;28;20041;-45
2024/02/10 12:34:21;;;;;;;7.10;5.65;;;16.40;96.90;;;;;;5031555;28;20025;-46
2024/02/10 12:36:47;;;;;;;8.02;5.65;;;16.40;96.90;;;;;;5030931;28;20026;-46
2024/02/10 12:39:15;;;;;;;6.03;4.95;;;16.40;96.90;;;;;;5031734;28;20087;-45
2024/02/10 12:41:42;;;;;;;6.03;4.60;;;16.50;96.90;;;;;;5032751;28;20654;-45
2024/02/10 12:44:10;;;;;;;5.85;4.55;;;16.50;96.80;;;;;;5032317;28;20693;-46
2024/02/10 12:46:36;;;;;;;7.03;5.03;;;16.50;96.80;;;;;;5031561;28;20020;-45
2024/02/10 12:49:03;;;;;;;5.43;4.45;;;16.50;96.80;;;;;;5031177;28;20108;-45